FW9671 Weather Reports


Display with metric or nautical units.
time (UTC)temp
F
wind
direction
speed
MPH
gust
MPH
rain 1hr
in
rain 24hr
in
rain mn
in
humidity
%
barometer
mb
20230205231540 51 233 6.0 11.0 0.00 0.19 0.08 56 1013.7
20230205230052 51 231 8.0 15.0 0.00 0.19 0.08 56 1013.4
20230205224540 51 184 6.0 15.0 0.00 0.19 0.08 56 1013.0
20230205223049 51 207 5.0 12.0 0.00 0.19 0.08 57 1012.9
20230205221545 51 233 3.0 13.0 0.00 0.19 0.08 57 1012.7
20230205220105 51 240 3.0 12.0 0.00 0.19 0.08 58 1012.5
20230205214547 51 226 6.0 19.0 0.00 0.19 0.08 55 1012.4
20230205213051 51 223 7.0 14.0 0.00 0.19 0.08 54 1012.4
20230205211548 51 252 8.0 19.0 0.00 0.19 0.08 56 1012.2
20230205210040 51 223 9.0 16.0 0.00 0.19 0.08 56 1012.1
20230205204539 52 231 4.0 13.0 0.00 0.19 0.08 61 1012.1
20230205203048 52 263 5.0 13.0 0.00 0.19 0.08 61 1011.9
20230205201609 53 216 4.0 14.0 0.00 0.19 0.08 62 1011.9
20230205200046 52 212 7.0 11.0 0.00 0.19 0.08 63 1011.5
20230205194548 51 242 4.0 11.0 0.00 0.19 0.08 63 1011.4
20230205193050 50 229 6.0 11.0 0.00 0.19 0.08 67 1011.5
20230205191547 49 207 6.0 11.0 0.00 0.19 0.08 68 1011.6
20230205190044 48 178 5.0 9.0 0.00 0.19 0.08 76 1011.4
20230205184548 45 242 2.0 6.0 0.00 0.19 0.08 80 1011.2
20230205183047 42 0 0.0 1.0 0.00 0.19 0.08 90 1011.1
20230205181553 41 114 0.0 2.0 0.00 0.19 0.08 94 1010.7
20230205180058 40 0 0.0 0.0 0.00 0.19 0.08 95 1010.3
20230205174550 39 0 0.0 1.0 0.00 0.19 0.08 96 1010.1
20230205173047 38 0 0.0 1.0 0.00 0.19 0.08 96 1009.8
20230205171607 38 0 0.0 1.0 0.00 0.19 0.08 97 1009.7
20230205170114 38 0 0.0 1.0 0.00 0.19 0.08 96 1009.3
20230205164603 37 132 0.0 1.0 0.00 0.19 0.08 96 1008.9
20230205163045 37 0 0.0 0.0 0.00 0.19 0.08 96 1008.7
20230205161550 37 0 0.0 1.0 0.00 0.19 0.08 96 1008.6
20230205160053 37 0 0.0 1.0 0.00 0.19 0.08 96 1008.2
20230205154547 37 0 0.0 1.0 0.00 0.19 0.08 96 1007.7
20230205153038 37 0 0.0 0.0 0.00 0.19 0.08 96 1007.2
20230205151546 37 0 0.0 1.0 0.00 0.19 0.08 96 1006.8
20230205150053 37 0 0.0 1.0 0.00 0.19 0.08 96 1006.4
20230205144549 37 0 0.0 1.0 0.00 0.19 0.08 96 1006.1
20230205143041 37 0 0.0 1.0 0.00 0.19 0.08 96 1005.8
20230205141543 38 0 0.0 0.0 0.00 0.19 0.08 96 1005.7
20230205140047 37 0 0.0 0.0 0.00 0.19 0.08 96 1005.4
20230205134608 38 203 0.0 0.0 0.03 0.19 0.08 96 1005.0
20230205133048 38 0 0.0 1.0 0.03 0.19 0.08 96 1005.0
20230205131542 38 0 0.0 1.0 0.03 0.19 0.08 96 1005.1
20230205130048 38 51 1.0 4.0 0.03 0.19 0.08 95 1005.1
20230205124554 38 221 1.0 2.0 0.00 0.16 0.05 96 1005.7
20230205123039 38 0 0.0 0.0 0.00 0.16 0.05 96 1004.8
20230205121547 38 0 0.0 0.0 0.00 0.16 0.05 96 1004.8
20230205120056 38 0 0.0 0.0 0.00 0.16 0.05 96 1004.5
20230205114556 38 0 0.0 0.0 0.00 0.16 0.05 96 1004.4
20230205113050 38 0 0.0 0.0 0.00 0.16 0.05 95 1004.5
20230205111552 38 0 0.0 0.0 0.00 0.16 0.05 95 1004.4
20230205110044 38 0 0.0 0.0 0.00 0.16 0.05 95 1004.5
20230205104600 38 0 0.0 0.0 0.00 0.16 0.05 95 1004.5
20230205103052 38 0 0.0 0.0 0.00 0.16 0.05 96 1004.7
20230205101549 38 0 0.0 1.0 0.01 0.16 0.05 95 1004.9
20230205100049 38 0 0.0 0.0 0.02 0.16 0.05 95 1005.2
20230205094549 38 0 0.0 0.0 0.03 0.16 0.05 95 1005.4
20230205093044 38 0 0.0 0.0 0.03 0.16 0.05 95 1005.3
20230205091549 38 0 0.0 1.0 0.03 0.15 0.04 95 1005.6
20230205090104 38 0 0.0 1.0 0.03 0.14 0.03 94 1005.7
20230205084556 39 0 0.0 0.0 0.03 0.13 0.02 94 1005.7
20230205083047 39 0 0.0 0.0 0.04 0.13 0.02 94 1006.0
20230205081549 39 0 0.0 1.0 0.06 0.12 0.01 93 1006.4
20230205080059 39 0 0.0 1.0 0.08 0.11 0.00 93 1006.9
20230205074538 39 0 0.0 1.0 0.10 0.10 0.10 93 1007.2
20230205073042 39 359 0.0 1.0 0.08 0.08 0.08 92 1007.6
20230205071543 39 0 0.0 1.0 0.06 0.06 0.06 91 1008.1
20230205070124 39 0 0.0 1.0 0.03 0.03 0.03 90 1008.5
20230205064545 40 0 0.0 0.0 0.00 0.00 0.00 88 1008.2
20230205063107 40 0 0.0 1.0 0.00 0.00 0.00 87 1008.4
20230205061549 40 0 0.0 1.0 0.00 0.00 0.00 87 1008.6
20230205060055 41 0 0.0 1.0 0.00 0.00 0.00 85 1008.6
20230205054554 40 0 0.0 1.0 0.00 0.00 0.00 87 1009.0
20230205053051 40 0 0.0 2.0 0.00 0.00 0.00 86 1009.3
20230205051545 40 138 0.0 1.0 0.00 0.00 0.00 87 1009.6
20230205050053 41 0 0.0 1.0 0.00 0.00 0.00 86 1009.6
20230205044539 41 0 0.0 0.0 0.00 0.00 0.00 85 1010.4
20230205043051 41 0 0.0 0.0 0.00 0.00 0.00 84 1010.6
20230205041609 42 0 0.0 0.0 0.00 0.00 0.00 84 1010.7
20230205040049 42 0 0.0 1.0 0.00 0.00 0.00 83 1011.0
20230205034538 42 178 1.0 2.0 0.00 0.00 0.00 83 1011.4
20230205033053 42 164 1.0 2.0 0.00 0.00 0.00 81 1011.4
20230205031550 43 10 0.0 0.0 0.00 0.00 0.00 79 1011.3
20230205030053 43 15 0.0 1.0 0.00 0.00 0.00 78 1011.3
20230205024552 44 0 0.0 2.0 0.00 0.00 0.00 75 1011.8
20230205023041 44 0 0.0 0.0 0.00 0.00 0.00 74 1012.1
20230205021542 44 0 0.0 0.0 0.00 0.00 0.00 74 1012.0
20230205020041 44 222 0.0 2.0 0.00 0.00 0.00 73 1011.8
20230205014555 45 220 0.0 1.0 0.00 0.00 0.00 72 1011.9
20230205013049 45 0 0.0 1.0 0.00 0.00 0.00 71 1012.1
20230205011543 46 292 0.0 2.0 0.00 0.00 0.00 69 1012.2
20230205010055 47 307 1.0 2.0 0.00 0.00 0.00 68 1012.4
20230205004542 47 18 0.0 3.0 0.00 0.00 0.00 68 1012.7
20230205003048 47 7 0.0 3.0 0.00 0.00 0.00 69 1012.5
20230205001541 48 25 2.0 6.0 0.00 0.00 0.00 68 1012.9
20230205000048 48 4 0.0 1.0 0.00 0.00 0.00 71 1013.0
20230204234539 48 17 0.0 1.0 0.00 0.00 0.00 70 1013.7
20230204233048 48 17 0.0 1.0 0.00 0.00 0.00 69 1014.1